sensor_id;sensor_type;location;lat;lon;timestamp;temperature;humidity
18797;DHT22;9526;52.612;13.300;2023-05-07T00:01:08;9.70;99.90
18797;DHT22;9526;52.612;13.300;2023-05-07T00:03:32;9.70;99.90
18797;DHT22;9526;52.612;13.300;2023-05-07T00:05:56;9.70;99.90
18797;DHT22;9526;52.612;13.300;2023-05-07T00:08:21;9.70;99.90
18797;DHT22;9526;52.612;13.300;2023-05-07T00:10:45;9.60;99.90
18797;DHT22;9526;52.612;13.300;2023-05-07T00:13:08;9.70;99.90
18797;DHT22;9526;52.612;13.300;2023-05-07T00:15:32;9.70;99.90
18797;DHT22;9526;52.612;13.300;2023-05-07T00:17:56;9.70;99.90
18797;DHT22;9526;52.612;13.300;2023-05-07T00:20:21;9.70;99.90
18797;DHT22;9526;52.612;13.300;2023-05-07T00:22:45;9.70;99.90
18797;DHT22;9526;52.612;13.300;2023-05-07T00:25:10;9.70;99.90
18797;DHT22;9526;52.612;13.300;2023-05-07T00:27:33;9.70;99.90
18797;DHT22;9526;52.612;13.300;2023-05-07T00:29:57;9.70;99.90
18797;DHT22;9526;52.612;13.300;2023-05-07T00:32:21;9.70;99.90
18797;DHT22;9526;52.612;13.300;2023-05-07T00:34:44;9.70;99.90
18797;DHT22;9526;52.612;13.300;2023-05-07T00:37:08;9.70;99.90
18797;DHT22;9526;52.612;13.300;2023-05-07T00:39:32;9.70;99.90
18797;DHT22;9526;52.612;13.300;2023-05-07T00:41:57;9.70;99.90
18797;DHT22;9526;52.612;13.300;2023-05-07T00:44:20;9.70;99.90
18797;DHT22;9526;52.612;13.300;2023-05-07T00:46:44;9.70;99.90
18797;DHT22;9526;52.612;13.300;2023-05-07T00:49:11;9.70;99.90
18797;DHT22;9526;52.612;13.300;2023-05-07T00:51:34;9.70;99.90
18797;DHT22;9526;52.612;13.300;2023-05-07T00:53:59;9.70;99.90
18797;DHT22;9526;52.612;13.300;2023-05-07T00:56:23;9.80;99.90
18797;DHT22;9526;52.612;13.300;2023-05-07T00:58:49;9.80;99.90
18797;DHT22;9526;52.612;13.300;2023-05-07T01:01:13;9.80;99.90
18797;DHT22;9526;52.612;13.300;2023-05-07T01:03:38;9.70;99.90
18797;DHT22;9526;52.612;13.300;2023-05-07T01:06:03;9.80;99.90
18797;DHT22;9526;52.612;13.300;2023-05-07T01:08:28;9.80;99.90
18797;DHT22;9526;52.612;13.300;2023-05-07T01:10:53;9.70;99.90
18797;DHT22;9526;52.612;13.300;2023-05-07T01:13:18;9.70;99.90
18797;DHT22;9526;52.612;13.300;2023-05-07T01:15:44;9.70;99.90
18797;DHT22;9526;52.612;13.300;2023-05-07T01:18:08;9.70;99.90
18797;DHT22;9526;52.612;13.300;2023-05-07T01:20:32;9.70;99.90
18797;DHT22;9526;52.612;13.300;2023-05-07T01:22:57;9.70;99.90
18797;DHT22;9526;52.612;13.300;2023-05-07T01:25:21;9.70;99.90
18797;DHT22;9526;52.612;13.300;2023-05-07T01:27:48;9.80;99.90
18797;DHT22;9526;52.612;13.300;2023-05-07T01:30:13;9.70;99.90
18797;DHT22;9526;52.612;13.300;2023-05-07T01:32:40;9.80;99.90
18797;DHT22;9526;52.612;13.300;2023-05-07T01:35:07;9.80;99.90
18797;DHT22;9526;52.612;13.300;2023-05-07T01:37:34;9.80;99.90
18797;DHT22;9526;52.612;13.300;2023-05-07T01:39:59;9.80;99.90
18797;DHT22;9526;52.612;13.300;2023-05-07T01:42:24;9.80;99.90
18797;DHT22;9526;52.612;13.300;2023-05-07T01:44:48;9.80;99.90
18797;DHT22;9526;52.612;13.300;2023-05-07T01:47:12;9.80;99.90
18797;DHT22;9526;52.612;13.300;2023-05-07T01:49:37;9.80;99.90
18797;DHT22;9526;52.612;13.300;2023-05-07T01:52:01;9.80;99.90
18797;DHT22;9526;52.612;13.300;2023-05-07T01:54:26;9.70;99.90
18797;DHT22;9526;52.612;13.300;2023-05-07T01:56:53;9.70;99.90
18797;DHT22;9526;52.612;13.300;2023-05-07T01:59:17;9.70;99.90
18797;DHT22;9526;52.612;13.300;2023-05-07T02:01:40;9.60;99.90
18797;DHT22;9526;52.612;13.300;2023-05-07T02:04:05;9.60;99.90
18797;DHT22;9526;52.612;13.300;2023-05-07T02:06:29;9.50;99.90
18797;DHT22;9526;52.612;13.300;2023-05-07T02:08:57;9.60;99.90
18797;DHT22;9526;52.612;13.300;2023-05-07T02:11:21;9.60;99.90
18797;DHT22;9526;52.612;13.300;2023-05-07T02:13:46;9.60;99.90
18797;DHT22;9526;52.612;13.300;2023-05-07T02:16:10;9.60;99.90
18797;DHT22;9526;52.612;13.300;2023-05-07T02:18:36;9.50;99.90
18797;DHT22;9526;52.612;13.300;2023-05-07T02:21:00;9.60;99.90
18797;DHT22;9526;52.612;13.300;2023-05-07T02:23:23;9.60;99.90
18797;DHT22;9526;52.612;13.300;2023-05-07T02:25:47;9.60;99.90
18797;DHT22;9526;52.612;13.300;2023-05-07T02:28:11;9.60;99.90
18797;DHT22;9526;52.612;13.300;2023-05-07T02:30:43;9.60;99.90
18797;DHT22;9526;52.612;13.300;2023-05-07T02:33:07;9.50;99.90
18797;DHT22;9526;52.612;13.300;2023-05-07T02:35:31;9.50;99.90
18797;DHT22;9526;52.612;13.300;2023-05-07T02:37:55;9.50;99.90
18797;DHT22;9526;52.612;13.300;2023-05-07T02:40:20;9.60;99.90
18797;DHT22;9526;52.612;13.300;2023-05-07T02:42:44;9.50;99.90
18797;DHT22;9526;52.612;13.300;2023-05-07T02:45:09;9.60;99.90
18797;DHT22;9526;52.612;13.300;2023-05-07T02:47:35;9.50;99.90
18797;DHT22;9526;52.612;13.300;2023-05-07T02:49:59;9.50;99.90
18797;DHT22;9526;52.612;13.300;2023-05-07T02:52:24;9.50;99.90
18797;DHT22;9526;52.612;13.300;2023-05-07T02:54:47;9.40;99.90
18797;DHT22;9526;52.612;13.300;2023-05-07T02:57:11;9.50;99.90
18797;DHT22;9526;52.612;13.300;2023-05-07T02:59:35;9.50;99.90
18797;DHT22;9526;52.612;13.300;2023-05-07T03:01:59;9.50;99.90
18797;DHT22;9526;52.612;13.300;2023-05-07T03:04:24;9.50;99.90
18797;DHT22;9526;52.612;13.300;2023-05-07T03:06:48;9.50;99.90
18797;DHT22;9526;52.612;13.300;2023-05-07T03:09:11;9.50;99.90
18797;DHT22;9526;52.612;13.300;2023-05-07T03:11:35;9.50;99.90
18797;DHT22;9526;52.612;13.300;2023-05-07T03:13:59;9.50;99.90
18797;DHT22;9526;52.612;13.300;2023-05-07T03:16:22;9.40;99.90
18797;DHT22;9526;52.612;13.300;2023-05-07T03:18:46;9.50;99.90
18797;DHT22;9526;52.612;13.300;2023-05-07T03:21:11;9.50;99.90
18797;DHT22;9526;52.612;13.300;2023-05-07T03:23:35;9.50;99.90
18797;DHT22;9526;52.612;13.300;2023-05-07T03:25:59;9.50;99.90
18797;DHT22;9526;52.612;13.300;2023-05-07T03:28:23;9.50;99.90
18797;DHT22;9526;52.612;13.300;2023-05-07T03:30:52;9.40;99.90
18797;DHT22;9526;52.612;13.300;2023-05-07T03:33:15;9.50;99.90
18797;DHT22;9526;52.612;13.300;2023-05-07T03:35:40;9.50;99.90
18797;DHT22;9526;52.612;13.300;2023-05-07T03:38:05;9.50;99.90
18797;DHT22;9526;52.612;13.300;2023-05-07T03:40:31;9.50;99.90
18797;DHT22;9526;52.612;13.300;2023-05-07T03:42:55;9.50;99.90
18797;DHT22;9526;52.612;13.300;2023-05-07T03:45:21;9.50;99.90
18797;DHT22;9526;52.612;13.300;2023-05-07T03:47:52;9.50;99.90
18797;DHT22;9526;52.612;13.300;2023-05-07T03:50:17;9.50;99.90
18797;DHT22;9526;52.612;13.300;2023-05-07T03:52:40;9.40;99.90
18797;DHT22;9526;52.612;13.300;2023-05-07T03:55:07;9.50;99.90
18797;DHT22;9526;52.612;13.300;2023-05-07T03:57:33;9.50;99.90
18797;DHT22;9526;52.612;13.300;2023-05-07T03:59:57;9.50;99.90
18797;DHT22;9526;52.612;13.300;2023-05-07T04:02:20;9.50;99.90
18797;DHT22;9526;52.612;13.300;2023-05-07T04:04:44;9.50;99.90
18797;DHT22;9526;52.612;13.300;2023-05-07T04:07:08;9.50;99.90
18797;DHT22;9526;52.612;13.300;2023-05-07T04:09:36;9.50;99.90
18797;DHT22;9526;52.612;13.300;2023-05-07T04:12:01;9.50;99.90
18797;DHT22;9526;52.612;13.300;2023-05-07T04:14:25;9.50;99.90
18797;DHT22;9526;52.612;13.300;2023-05-07T04:16:48;9.60;99.90
18797;DHT22;9526;52.612;13.300;2023-05-07T04:19:12;9.50;99.90
18797;DHT22;9526;52.612;13.300;2023-05-07T04:21:36;9.40;99.90
18797;DHT22;9526;52.612;13.300;2023-05-07T04:24:00;9.40;99.90
18797;DHT22;9526;52.612;13.300;2023-05-07T04:26:23;9.40;99.90
18797;DHT22;9526;52.612;13.300;2023-05-07T04:28:49;9.50;99.90
18797;DHT22;9526;52.612;13.300;2023-05-07T04:31:12;9.40;99.90
18797;DHT22;9526;52.612;13.300;2023-05-07T04:33:36;9.40;99.90
18797;DHT22;9526;52.612;13.300;2023-05-07T04:36:03;9.40;99.90
18797;DHT22;9526;52.612;13.300;2023-05-07T04:38:33;9.40;99.90
18797;DHT22;9526;52.612;13.300;2023-05-07T04:41:02;9.50;99.90
18797;DHT22;9526;52.612;13.300;2023-05-07T04:43:30;9.50;99.90
18797;DHT22;9526;52.612;13.300;2023-05-07T04:45:55;9.50;99.90
18797;DHT22;9526;52.612;13.300;2023-05-07T04:48:21;9.60;99.90
18797;DHT22;9526;52.612;13.300;2023-05-07T04:50:47;9.60;99.90
18797;DHT22;9526;52.612;13.300;2023-05-07T04:53:12;9.60;99.90
18797;DHT22;9526;52.612;13.300;2023-05-07T04:55:36;9.60;99.90
18797;DHT22;9526;52.612;13.300;2023-05-07T04:58:00;9.60;99.90
18797;DHT22;9526;52.612;13.300;2023-05-07T05:00:27;9.60;99.90
18797;DHT22;9526;52.612;13.300;2023-05-07T05:02:53;9.60;99.90
18797;DHT22;9526;52.612;13.300;2023-05-07T05:05:17;9.70;99.90
18797;DHT22;9526;52.612;13.300;2023-05-07T05:07:44;9.70;99.90
18797;DHT22;9526;52.612;13.300;2023-05-07T05:10:08;9.60;99.90
18797;DHT22;9526;52.612;13.300;2023-05-07T05:12:34;9.60;99.90
18797;DHT22;9526;52.612;13.300;2023-05-07T05:14:58;9.60;99.90
18797;DHT22;9526;52.612;13.300;2023-05-07T05:17:21;9.60;99.90
18797;DHT22;9526;52.612;13.300;2023-05-07T05:19:47;9.60;99.90
18797;DHT22;9526;52.612;13.300;2023-05-07T05:22:11;9.60;99.90
18797;DHT22;9526;52.612;13.300;2023-05-07T05:24:35;9.60;99.90
18797;DHT22;9526;52.612;13.300;2023-05-07T05:26:58;9.60;99.90
18797;DHT22;9526;52.612;13.300;2023-05-07T05:29:25;9.60;99.90
18797;DHT22;9526;52.612;13.300;2023-05-07T05:31:49;9.60;99.90
18797;DHT22;9526;52.612;13.300;2023-05-07T05:34:13;9.70;99.90
18797;DHT22;9526;52.612;13.300;2023-05-07T05:36:38;9.80;99.90
18797;DHT22;9526;52.612;13.300;2023-05-07T05:39:02;9.80;99.90
18797;DHT22;9526;52.612;13.300;2023-05-07T05:41:26;9.80;99.90
18797;DHT22;9526;52.612;13.300;2023-05-07T05:43:50;9.90;99.90
18797;DHT22;9526;52.612;13.300;2023-05-07T05:46:16;10.00;99.90
18797;DHT22;9526;52.612;13.300;2023-05-07T05:48:41;10.20;99.90
18797;DHT22;9526;52.612;13.300;2023-05-07T05:51:06;10.40;99.90
18797;DHT22;9526;52.612;13.300;2023-05-07T05:53:31;10.60;99.90
18797;DHT22;9526;52.612;13.300;2023-05-07T05:55:55;10.60;99.90
18797;DHT22;9526;52.612;13.300;2023-05-07T05:58:18;10.80;99.90
18797;DHT22;9526;52.612;13.300;2023-05-07T06:00:48;10.80;99.90
18797;DHT22;9526;52.612;13.300;2023-05-07T06:03:17;11.00;99.90
18797;DHT22;9526;52.612;13.300;2023-05-07T06:05:41;11.20;99.90
18797;DHT22;9526;52.612;13.300;2023-05-07T06:08:05;11.30;99.90
18797;DHT22;9526;52.612;13.300;2023-05-07T06:10:31;11.30;99.90
18797;DHT22;9526;52.612;13.300;2023-05-07T06:12:54;11.20;99.90
18797;DHT22;9526;52.612;13.300;2023-05-07T06:15:19;11.20;99.90
18797;DHT22;9526;52.612;13.300;2023-05-07T06:17:43;11.20;99.90
18797;DHT22;9526;52.612;13.300;2023-05-07T06:20:07;11.60;99.90
18797;DHT22;9526;52.612;13.300;2023-05-07T06:22:33;11.60;99.90
18797;DHT22;9526;52.612;13.300;2023-05-07T06:24:58;11.70;99.90
18797;DHT22;9526;52.612;13.300;2023-05-07T06:27:23;11.90;99.90
18797;DHT22;9526;52.612;13.300;2023-05-07T06:29:48;12.00;99.90
18797;DHT22;9526;52.612;13.300;2023-05-07T06:32:13;12.10;99.90
18797;DHT22;9526;52.612;13.300;2023-05-07T06:34:39;12.20;99.90
18797;DHT22;9526;52.612;13.300;2023-05-07T06:37:03;12.30;99.90
18797;DHT22;9526;52.612;13.300;2023-05-07T06:39:41;12.70;99.90
18797;DHT22;9526;52.612;13.300;2023-05-07T06:42:04;12.80;99.90
18797;DHT22;9526;52.612;13.300;2023-05-07T06:44:36;13.20;99.90
18797;DHT22;9526;52.612;13.300;2023-05-07T06:47:02;13.20;99.90
18797;DHT22;9526;52.612;13.300;2023-05-07T06:49:27;13.60;99.90
18797;DHT22;9526;52.612;13.300;2023-05-07T06:51:51;13.70;99.90
18797;DHT22;9526;52.612;13.300;2023-05-07T06:54:14;13.60;99.90
18797;DHT22;9526;52.612;13.300;2023-05-07T06:56:38;13.20;99.90
18797;DHT22;9526;52.612;13.300;2023-05-07T06:59:03;13.20;99.90
18797;DHT22;9526;52.612;13.300;2023-05-07T07:01:32;13.30;99.90
18797;DHT22;9526;52.612;13.300;2023-05-07T07:03:57;13.20;99.90
18797;DHT22;9526;52.612;13.300;2023-05-07T07:06:23;13.10;99.90
18797;DHT22;9526;52.612;13.300;2023-05-07T07:08:47;13.10;99.90
18797;DHT22;9526;52.612;13.300;2023-05-07T07:11:12;13.10;99.90
18797;DHT22;9526;52.612;13.300;2023-05-07T07:13:36;13.10;99.90
18797;DHT22;9526;52.612;13.300;2023-05-07T07:16:00;13.20;99.90
18797;DHT22;9526;52.612;13.300;2023-05-07T07:18:25;13.60;99.90
18797;DHT22;9526;52.612;13.300;2023-05-07T07:20:49;13.60;99.90
18797;DHT22;9526;52.612;13.300;2023-05-07T07:23:13;13.80;99.90
18797;DHT22;9526;52.612;13.300;2023-05-07T07:25:36;14.00;99.90
18797;DHT22;9526;52.612;13.300;2023-05-07T07:28:00;14.20;99.90
18797;DHT22;9526;52.612;13.300;2023-05-07T07:30:24;14.20;99.90
18797;DHT22;9526;52.612;13.300;2023-05-07T07:32:49;14.20;99.90
18797;DHT22;9526;52.612;13.300;2023-05-07T07:35:16;14.20;99.90
18797;DHT22;9526;52.612;13.300;2023-05-07T07:37:40;14.40;99.90
18797;DHT22;9526;52.612;13.300;2023-05-07T07:40:04;14.30;99.90
18797;DHT22;9526;52.612;13.300;2023-05-07T07:42:30;14.40;99.90
18797;DHT22;9526;52.612;13.300;2023-05-07T07:44:55;14.50;99.90
18797;DHT22;9526;52.612;13.300;2023-05-07T07:47:21;14.60;99.90
18797;DHT22;9526;52.612;13.300;2023-05-07T07:49:45;14.40;99.90
18797;DHT22;9526;52.612;13.300;2023-05-07T07:52:10;14.30;99.90
18797;DHT22;9526;52.612;13.300;2023-05-07T07:54:36;14.50;99.90
18797;DHT22;9526;52.612;13.300;2023-05-07T07:57:01;14.60;99.90
18797;DHT22;9526;52.612;13.300;2023-05-07T07:59:27;15.00;99.90
18797;DHT22;9526;52.612;13.300;2023-05-07T08:01:51;14.80;99.90
18797;DHT22;9526;52.612;13.300;2023-05-07T08:04:19;14.60;99.90
18797;DHT22;9526;52.612;13.300;2023-05-07T08:06:43;14.80;99.90
18797;DHT22;9526;52.612;13.300;2023-05-07T08:09:08;14.90;99.90
18797;DHT22;9526;52.612;13.300;2023-05-07T08:11:34;15.00;99.90
18797;DHT22;9526;52.612;13.300;2023-05-07T08:13:59;14.80;99.90
18797;DHT22;9526;52.612;13.300;2023-05-07T08:16:23;15.00;99.90
18797;DHT22;9526;52.612;13.300;2023-05-07T08:18:47;15.20;99.90
18797;DHT22;9526;52.612;13.300;2023-05-07T08:21:11;15.60;99.90
18797;DHT22;9526;52.612;13.300;2023-05-07T08:23:34;15.40;99.90
18797;DHT22;9526;52.612;13.300;2023-05-07T08:26:00;15.40;99.90
18797;DHT22;9526;52.612;13.300;2023-05-07T08:28:25;15.70;99.90
18797;DHT22;9526;52.612;13.300;2023-05-07T08:30:48;15.80;99.90
18797;DHT22;9526;52.612;13.300;2023-05-07T08:33:12;15.70;99.90
18797;DHT22;9526;52.612;13.300;2023-05-07T08:35:36;15.70;99.90
18797;DHT22;9526;52.612;13.300;2023-05-07T08:38:02;15.60;99.90
18797;DHT22;9526;52.612;13.300;2023-05-07T08:40:26;15.60;99.90
18797;DHT22;9526;52.612;13.300;2023-05-07T08:42:53;15.60;99.90
18797;DHT22;9526;52.612;13.300;2023-05-07T08:45:19;15.40;99.90
18797;DHT22;9526;52.612;13.300;2023-05-07T08:47:47;15.50;99.90
18797;DHT22;9526;52.612;13.300;2023-05-07T08:50:17;15.50;99.90
18797;DHT22;9526;52.612;13.300;2023-05-07T08:52:42;15.30;99.90
18797;DHT22;9526;52.612;13.300;2023-05-07T08:55:08;15.30;99.90
18797;DHT22;9526;52.612;13.300;2023-05-07T08:57:32;15.20;99.90
18797;DHT22;9526;52.612;13.300;2023-05-07T08:59:58;15.40;99.90
18797;DHT22;9526;52.612;13.300;2023-05-07T09:02:22;15.60;99.90
18797;DHT22;9526;52.612;13.300;2023-05-07T09:04:48;15.70;99.90
18797;DHT22;9526;52.612;13.300;2023-05-07T09:07:13;15.60;99.90
18797;DHT22;9526;52.612;13.300;2023-05-07T09:09:38;16.00;99.90
18797;DHT22;9526;52.612;13.300;2023-05-07T09:12:03;15.80;99.90
18797;DHT22;9526;52.612;13.300;2023-05-07T09:14:28;15.80;99.90
18797;DHT22;9526;52.612;13.300;2023-05-07T09:16:54;15.90;99.90
18797;DHT22;9526;52.612;13.300;2023-05-07T09:19:22;16.10;99.90
18797;DHT22;9526;52.612;13.300;2023-05-07T09:21:47;16.10;99.90
18797;DHT22;9526;52.612;13.300;2023-05-07T09:24:11;16.10;99.90
18797;DHT22;9526;52.612;13.300;2023-05-07T09:26:35;16.20;99.90
18797;DHT22;9526;52.612;13.300;2023-05-07T09:29:01;16.50;99.90
18797;DHT22;9526;52.612;13.300;2023-05-07T09:31:24;16.60;99.90
18797;DHT22;9526;52.612;13.300;2023-05-07T09:33:52;16.70;99.90
18797;DHT22;9526;52.612;13.300;2023-05-07T09:36:19;17.00;99.90
18797;DHT22;9526;52.612;13.300;2023-05-07T09:38:43;16.70;99.90
18797;DHT22;9526;52.612;13.300;2023-05-07T09:41:09;16.60;99.90
18797;DHT22;9526;52.612;13.300;2023-05-07T09:43:44;16.50;99.90
18797;DHT22;9526;52.612;13.300;2023-05-07T09:46:12;16.80;99.90
18797;DHT22;9526;52.612;13.300;2023-05-07T09:48:43;16.90;99.90
18797;DHT22;9526;52.612;13.300;2023-05-07T09:51:22;16.70;99.90
18797;DHT22;9526;52.612;13.300;2023-05-07T09:53:51;17.10;99.90
18797;DHT22;9526;52.612;13.300;2023-05-07T09:56:18;17.10;99.90
18797;DHT22;9526;52.612;13.300;2023-05-07T09:58:43;17.20;99.90
18797;DHT22;9526;52.612;13.300;2023-05-07T10:01:10;17.30;99.90
18797;DHT22;9526;52.612;13.300;2023-05-07T10:03:36;17.20;99.90
18797;DHT22;9526;52.612;13.300;2023-05-07T10:06:00;17.60;99.90
18797;DHT22;9526;52.612;13.300;2023-05-07T10:08:26;17.30;99.90
18797;DHT22;9526;52.612;13.300;2023-05-07T10:10:52;17.50;99.90
18797;DHT22;9526;52.612;13.300;2023-05-07T10:13:19;17.90;99.90
18797;DHT22;9526;52.612;13.300;2023-05-07T10:15:47;18.00;99.90
18797;DHT22;9526;52.612;13.300;2023-05-07T10:18:13;18.20;99.90
18797;DHT22;9526;52.612;13.300;2023-05-07T10:20:43;18.30;99.90
18797;DHT22;9526;52.612;13.300;2023-05-07T10:23:08;18.40;99.90
18797;DHT22;9526;52.612;13.300;2023-05-07T10:25:41;18.10;99.90
18797;DHT22;9526;52.612;13.300;2023-05-07T10:28:12;18.00;99.90
18797;DHT22;9526;52.612;13.300;2023-05-07T10:30:48;17.80;99.90
18797;DHT22;9526;52.612;13.300;2023-05-07T10:33:29;17.70;99.90
18797;DHT22;9526;52.612;13.300;2023-05-07T10:35:58;17.80;99.90
18797;DHT22;9526;52.612;13.300;2023-05-07T10:38:25;17.70;99.90
18797;DHT22;9526;52.612;13.300;2023-05-07T10:40:51;17.80;99.90
18797;DHT22;9526;52.612;13.300;2023-05-07T10:43:14;17.80;99.90
18797;DHT22;9526;52.612;13.300;2023-05-07T10:46:09;17.50;99.90
18797;DHT22;9526;52.612;13.300;2023-05-07T10:49:08;17.90;99.90
18797;DHT22;9526;52.612;13.300;2023-05-07T10:52:16;17.50;99.90
18797;DHT22;9526;52.612;13.300;2023-05-07T10:55:19;17.50;99.90
18797;DHT22;9526;52.612;13.300;2023-05-07T10:58:24;17.90;99.90
18797;DHT22;9526;52.612;13.300;2023-05-07T11:01:15;17.70;99.90
18797;DHT22;9526;52.612;13.300;2023-05-07T11:04:30;17.80;99.90
18797;DHT22;9526;52.612;13.300;2023-05-07T11:07:31;18.10;99.90
18797;DHT22;9526;52.612;13.300;2023-05-07T11:10:05;17.90;99.90
18797;DHT22;9526;52.612;13.300;2023-05-07T11:12:51;17.40;99.90
18797;DHT22;9526;52.612;13.300;2023-05-07T11:15:43;17.40;99.90
18797;DHT22;9526;52.612;13.300;2023-05-07T11:18:46;17.70;99.90
18797;DHT22;9526;52.612;13.300;2023-05-07T11:21:34;18.00;99.90
18797;DHT22;9526;52.612;13.300;2023-05-07T11:24:07;17.90;99.90
18797;DHT22;9526;52.612;13.300;2023-05-07T11:26:52;18.00;99.90
18797;DHT22;9526;52.612;13.300;2023-05-07T11:29:20;17.90;99.90
18797;DHT22;9526;52.612;13.300;2023-05-07T11:31:52;18.00;99.90
18797;DHT22;9526;52.612;13.300;2023-05-07T11:34:24;17.60;99.90
18797;DHT22;9526;52.612;13.300;2023-05-07T11:36:52;17.50;99.90
18797;DHT22;9526;52.612;13.300;2023-05-07T11:39:28;17.60;99.90
18797;DHT22;9526;52.612;13.300;2023-05-07T11:41:53;17.70;99.90
18797;DHT22;9526;52.612;13.300;2023-05-07T11:44:17;17.70;99.90
18797;DHT22;9526;52.612;13.300;2023-05-07T11:46:43;17.70;99.90
18797;DHT22;9526;52.612;13.300;2023-05-07T11:49:08;17.70;99.90
18797;DHT22;9526;52.612;13.300;2023-05-07T11:51:32;17.90;99.90
18797;DHT22;9526;52.612;13.300;2023-05-07T11:53:56;18.10;99.90
18797;DHT22;9526;52.612;13.300;2023-05-07T11:56:20;18.10;99.90
18797;DHT22;9526;52.612;13.300;2023-05-07T11:58:45;18.30;99.90
18797;DHT22;9526;52.612;13.300;2023-05-07T12:01:10;18.50;99.90
18797;DHT22;9526;52.612;13.300;2023-05-07T12:03:35;18.60;99.90
18797;DHT22;9526;52.612;13.300;2023-05-07T12:06:01;18.10;99.90
18797;DHT22;9526;52.612;13.300;2023-05-07T12:08:25;18.30;99.90
18797;DHT22;9526;52.612;13.300;2023-05-07T12:10:49;18.40;99.90
18797;DHT22;9526;52.612;13.300;2023-05-07T12:13:16;18.00;99.90
18797;DHT22;9526;52.612;13.300;2023-05-07T12:15:40;18.50;99.90
18797;DHT22;9526;52.612;13.300;2023-05-07T12:18:05;18.80;99.90
18797;DHT22;9526;52.612;13.300;2023-05-07T12:20:28;18.90;99.90
18797;DHT22;9526;52.612;13.300;2023-05-07T12:22:55;19.20;99.90
18797;DHT22;9526;52.612;13.300;2023-05-07T12:25:19;19.10;99.90
18797;DHT22;9526;52.612;13.300;2023-05-07T12:27:43;19.30;99.40
18797;DHT22;9526;52.612;13.300;2023-05-07T12:30:10;19.10;98.90
18797;DHT22;9526;52.612;13.300;2023-05-07T12:32:36;18.90;97.70
18797;DHT22;9526;52.612;13.300;2023-05-07T12:35:00;19.00;99.00
18797;DHT22;9526;52.612;13.300;2023-05-07T12:37:24;18.90;98.50
18797;DHT22;9526;52.612;13.300;2023-05-07T12:40:05;19.20;99.70
18797;DHT22;9526;52.612;13.300;2023-05-07T12:42:32;19.20;97.70
18797;DHT22;9526;52.612;13.300;2023-05-07T12:44:57;19.20;98.80
18797;DHT22;9526;52.612;13.300;2023-05-07T12:47:21;19.00;97.90
18797;DHT22;9526;52.612;13.300;2023-05-07T12:49:45;18.90;99.40
18797;DHT22;9526;52.612;13.300;2023-05-07T12:52:11;19.10;99.70
18797;DHT22;9526;52.612;13.300;2023-05-07T12:54:37;18.90;97.20
18797;DHT22;9526;52.612;13.300;2023-05-07T12:57:04;18.90;98.50
18797;DHT22;9526;52.612;13.300;2023-05-07T12:59:33;19.20;99.50
18797;DHT22;9526;52.612;13.300;2023-05-07T13:01:57;19.00;96.90
18797;DHT22;9526;52.612;13.300;2023-05-07T13:04:24;18.90;97.30
18797;DHT22;9526;52.612;13.300;2023-05-07T13:06:48;18.40;97.30
18797;DHT22;9526;52.612;13.300;2023-05-07T13:09:12;18.40;99.70
18797;DHT22;9526;52.612;13.300;2023-05-07T13:11:35;18.90;99.60
18797;DHT22;9526;52.612;13.300;2023-05-07T13:14:00;19.00;98.50
18797;DHT22;9526;52.612;13.300;2023-05-07T13:16:24;18.80;97.60
18797;DHT22;9526;52.612;13.300;2023-05-07T13:18:48;18.70;98.00
18797;DHT22;9526;52.612;13.300;2023-05-07T13:21:11;18.50;97.30
18797;DHT22;9526;52.612;13.300;2023-05-07T13:23:36;18.50;98.80
18797;DHT22;9526;52.612;13.300;2023-05-07T13:26:00;18.50;97.80
18797;DHT22;9526;52.612;13.300;2023-05-07T13:28:32;18.40;97.20
18797;DHT22;9526;52.612;13.300;2023-05-07T13:30:57;18.60;99.30
18797;DHT22;9526;52.612;13.300;2023-05-07T13:33:21;18.70;97.70
18797;DHT22;9526;52.612;13.300;2023-05-07T13:35:46;18.60;96.80
18797;DHT22;9526;52.612;13.300;2023-05-07T13:38:09;18.40;97.40
18797;DHT22;9526;52.612;13.300;2023-05-07T13:40:33;18.10;96.90
18797;DHT22;9526;52.612;13.300;2023-05-07T13:42:57;18.20;97.90
18797;DHT22;9526;52.612;13.300;2023-05-07T13:45:23;18.20;98.40
18797;DHT22;9526;52.612;13.300;2023-05-07T13:47:50;18.20;97.10
18797;DHT22;9526;52.612;13.300;2023-05-07T13:50:14;18.00;98.50
18797;DHT22;9526;52.612;13.300;2023-05-07T13:52:38;18.00;98.80
18797;DHT22;9526;52.612;13.300;2023-05-07T13:55:02;18.10;96.70
18797;DHT22;9526;52.612;13.300;2023-05-07T13:57:26;18.00;97.40
18797;DHT22;9526;52.612;13.300;2023-05-07T13:59:50;17.90;97.80
18797;DHT22;9526;52.612;13.300;2023-05-07T14:02:13;17.80;98.70
18797;DHT22;9526;52.612;13.300;2023-05-07T14:04:39;17.90;99.70
18797;DHT22;9526;52.612;13.300;2023-05-07T14:07:02;18.10;98.80
18797;DHT22;9526;52.612;13.300;2023-05-07T14:09:26;18.10;99.00
18797;DHT22;9526;52.612;13.300;2023-05-07T14:11:49;18.30;98.40
18797;DHT22;9526;52.612;13.300;2023-05-07T14:14:14;18.40;98.30
18797;DHT22;9526;52.612;13.300;2023-05-07T14:16:38;18.30;96.50
18797;DHT22;9526;52.612;13.300;2023-05-07T14:19:02;18.50;98.00
18797;DHT22;9526;52.612;13.300;2023-05-07T14:21:27;18.20;95.70
18797;DHT22;9526;52.612;13.300;2023-05-07T14:23:51;18.20;96.10
18797;DHT22;9526;52.612;13.300;2023-05-07T14:26:14;18.30;96.00
18797;DHT22;9526;52.612;13.300;2023-05-07T14:28:38;18.40;95.80
18797;DHT22;9526;52.612;13.300;2023-05-07T14:31:03;18.30;95.30
18797;DHT22;9526;52.612;13.300;2023-05-07T14:33:26;18.30;94.70
18797;DHT22;9526;52.612;13.300;2023-05-07T14:35:50;18.40;95.70
18797;DHT22;9526;52.612;13.300;2023-05-07T14:38:16;18.60;94.80
18797;DHT22;9526;52.612;13.300;2023-05-07T14:40:39;18.90;95.70
18797;DHT22;9526;52.612;13.300;2023-05-07T14:43:03;19.00;95.40
18797;DHT22;9526;52.612;13.300;2023-05-07T14:45:27;19.20;95.00
18797;DHT22;9526;52.612;13.300;2023-05-07T14:47:50;18.70;94.70
18797;DHT22;9526;52.612;13.300;2023-05-07T14:50:14;18.60;95.10
18797;DHT22;9526;52.612;13.300;2023-05-07T14:52:38;18.40;95.80
18797;DHT22;9526;52.612;13.300;2023-05-07T14:55:03;18.30;95.50
18797;DHT22;9526;52.612;13.300;2023-05-07T14:57:28;18.30;96.00
18797;DHT22;9526;52.612;13.300;2023-05-07T14:59:54;18.30;96.10
18797;DHT22;9526;52.612;13.300;2023-05-07T15:02:17;18.30;95.10
18797;DHT22;9526;52.612;13.300;2023-05-07T15:04:42;18.10;95.80
18797;DHT22;9526;52.612;13.300;2023-05-07T15:07:08;18.00;95.50
18797;DHT22;9526;52.612;13.300;2023-05-07T15:09:32;18.00;96.00
18797;DHT22;9526;52.612;13.300;2023-05-07T15:11:57;18.10;96.60
18797;DHT22;9526;52.612;13.300;2023-05-07T15:14:21;18.10;95.60
18797;DHT22;9526;52.612;13.300;2023-05-07T15:16:44;17.90;95.10
18797;DHT22;9526;52.612;13.300;2023-05-07T15:19:08;17.60;95.70
18797;DHT22;9526;52.612;13.300;2023-05-07T15:21:32;17.50;96.10
18797;DHT22;9526;52.612;13.300;2023-05-07T15:23:56;17.50;96.60
18797;DHT22;9526;52.612;13.300;2023-05-07T15:26:20;17.30;96.80
18797;DHT22;9526;52.612;13.300;2023-05-07T15:28:45;17.30;97.00
18797;DHT22;9526;52.612;13.300;2023-05-07T15:31:08;17.20;97.10